| time (UTC) | temp C | wind direction | speed KPH | gust KPH | rain 1hr cm | rain 24hr cm | rain mn cm | humidity % | barometer mb |
| 20260507144501 | 10 | 261 | 1.6 | 6.4 | 0.00 | 0.00 | 0.00 | 39 | 1010.4 |
| 20260507143951 | 9 | 261 | 1.6 | 8.0 | 0.00 | 0.00 | 0.00 | 41 | 1010.4 |
| 20260507143433 | 9 | 261 | 1.6 | 8.0 | 0.00 | 0.00 | 0.00 | 43 | 1010.5 |
| 20260507142923 | 8 | 261 | 1.6 | 6.4 | 0.00 | 0.00 | 0.00 | 44 | 1010.4 |
| 20260507142413 | 8 | 261 | 0.0 | 3.2 | 0.00 | 0.00 | 0.00 | 44 | 1010.5 |
| 20260507141903 | 7 | 261 | 0.0 | 3.2 | 0.00 | 0.00 | 0.00 | 46 | 1010.4 |
| 20260507141353 | 7 | 261 | 0.0 | 3.2 | 0.00 | 0.00 | 0.00 | 46 | 1010.4 |
| 20260507140844 | 7 | 261 | 0.0 | 3.2 | 0.00 | 0.00 | 0.00 | 47 | 1010.5 |
| 20260507140334 | 6 | 261 | 1.6 | 3.2 | 0.00 | 0.00 | 0.00 | 47 | 1010.4 |
| 20260507135823 | 6 | 261 | 1.6 | 6.4 | 0.00 | 0.00 | 0.00 | 49 | 1010.3 |
| 20260507135314 | 5 | 261 | 1.6 | 6.4 | 0.00 | 0.00 | 0.00 | 51 | 1010.4 |
| 20260507134803 | 5 | 261 | 1.6 | 6.4 | 0.00 | 0.00 | 0.00 | 50 | 1010.4 |
| 20260507134755 | 5 | 261 | 1.6 | 6.4 | 0.00 | 0.00 | 0.00 | 51 | 1010.4 |
| 20260507133743 | 4 | 261 | 0.0 | 3.2 | 0.00 | 0.00 | 0.00 | 52 | 1010.4 |
| 20260507133734 | 4 | 0 | 1.6 | 3.2 | 0.00 | 0.00 | 0.00 | 51 | 1010.5 |
| 20260507133223 | 4 | 0 | 3.2 | 6.4 | 0.00 | 0.00 | 0.00 | 51 | 1010.5 |
| 20260507132213 | 4 | 0 | 3.2 | 6.4 | 0.00 | 0.00 | 0.00 | 51 | 1010.4 |
| 20260507131704 | 3 | 261 | 1.6 | 6.4 | 0.00 | 0.00 | 0.00 | 52 | 1010.4 |
| 20260507131153 | 2 | 261 | 0.0 | 0.0 | 0.00 | 0.00 | 0.00 | 57 | 1010.4 |
| 20260507130643 | 2 | 261 | 0.0 | 0.0 | 0.00 | 0.00 | 0.00 | 60 | 1010.4 |
| 20260507130133 | 2 | 261 | 0.0 | 0.0 | 0.00 | 0.00 | 0.00 | 60 | 1010.4 |
| 20260507130125 | 1 | 0 | 0.0 | 0.0 | 0.00 | 0.00 | 0.00 | 58 | 1010.3 |
| 20260507125116 | 1 | 0 | 0.0 | 0.0 | 0.00 | 0.00 | 0.00 | 59 | 1010.3 |
| 20260507124605 | 1 | 0 | 0.0 | 0.0 | 0.00 | 0.00 | 0.00 | 58 | 1010.3 |
| 20260507124057 | 1 | 0 | 0.0 | 0.0 | 0.00 | 0.00 | 0.00 | 58 | 1010.3 |
| 20260507123557 | 1 | 0 | 0.0 | 0.0 | 0.00 | 0.00 | 0.00 | 58 | 1010.1 |
| 20260507123540 | 0 | 0 | 0.0 | 0.0 | 0.00 | 0.00 | 0.00 | 58 | 1010.1 |
| 20260507122532 | 0 | 0 | 0.0 | 0.0 | 0.00 | 0.00 | 0.00 | 58 | 1010.1 |
| 20260507122015 | 0 | 0 | 0.0 | 0.0 | 0.00 | 0.00 | 0.00 | 58 | 1010.1 |
| 20260507121507 | 0 | 0 | 0.0 | 0.0 | 0.00 | 0.00 | 0.00 | 57 | 1010.0 |
| 20260507121002 | 1 | 0 | 0.0 | 0.0 | 0.00 | 0.00 | 0.00 | 56 | 1010.0 |
| 20260507120455 | 1 | 0 | 0.0 | 0.0 | 0.00 | 0.00 | 0.00 | 55 | 1010.0 |
| 20260507115948 | 1 | 0 | 0.0 | 0.0 | 0.00 | 0.00 | 0.00 | 55 | 1010.0 |
| 20260507115442 | 1 | 0 | 0.0 | 0.0 | 0.00 | 0.00 | 0.00 | 54 | 1009.9 |
| 20260507114937 | 1 | 0 | 0.0 | 0.0 | 0.00 | 0.00 | 0.00 | 54 | 1009.9 |
| 20260507114932 | 1 | 0 | 0.0 | 0.0 | 0.00 | 0.00 | 0.00 | 54 | 1009.8 |
| 20260507113921 | 1 | 0 | 0.0 | 0.0 | 0.00 | 0.00 | 0.00 | 54 | 1009.7 |
| 20260507113413 | 1 | 0 | 0.0 | 0.0 | 0.00 | 0.00 | 0.00 | 54 | 1009.8 |
| 20260507112907 | 1 | 0 | 0.0 | 0.0 | 0.00 | 0.00 | 0.00 | 54 | 1009.8 |
| 20260507112401 | 1 | 0 | 0.0 | 0.0 | 0.00 | 0.00 | 0.00 | 53 | 1009.7 |
| 20260507111856 | 1 | 0 | 0.0 | 3.2 | 0.00 | 0.00 | 0.00 | 53 | 1009.7 |
| 20260507111352 | 1 | 0 | 0.0 | 3.2 | 0.00 | 0.00 | 0.00 | 53 | 1009.7 |
| 20260507110851 | 1 | 0 | 0.0 | 3.2 | 0.00 | 0.00 | 0.00 | 52 | 1009.7 |
| 20260507110345 | 2 | 0 | 1.6 | 6.4 | 0.00 | 0.00 | 0.00 | 52 | 1009.7 |
| 20260507105841 | 2 | 0 | 1.6 | 6.4 | 0.00 | 0.00 | 0.00 | 52 | 1009.6 |
| 20260507105836 | 2 | 0 | 3.2 | 6.4 | 0.00 | 0.00 | 0.00 | 51 | 1009.7 |
| 20260507104830 | 2 | 0 | 0.0 | 3.2 | 0.00 | 0.00 | 0.00 | 52 | 1009.6 |
| 20260507104324 | 2 | 0 | 1.6 | 6.4 | 0.00 | 0.00 | 0.00 | 52 | 1009.5 |
| 20260507103819 | 2 | 0 | 3.2 | 6.4 | 0.00 | 0.00 | 0.00 | 52 | 1009.5 |
| 20260507103309 | 2 | 0 | 3.2 | 6.4 | 0.00 | 0.00 | 0.00 | 52 | 1009.5 |
| 20260507102809 | 2 | 0 | 3.2 | 6.4 | 0.00 | 0.00 | 0.00 | 51 | 1009.5 |
| 20260507102258 | 2 | 0 | 3.2 | 6.4 | 0.00 | 0.00 | 0.00 | 51 | 1009.4 |
| 20260507101752 | 2 | 0 | 0.0 | 3.2 | 0.00 | 0.00 | 0.00 | 51 | 1009.4 |
| 20260507101244 | 2 | 0 | 0.0 | 3.2 | 0.00 | 0.00 | 0.00 | 50 | 1009.4 |
| 20260507100733 | 2 | 0 | 0.0 | 8.0 | 0.00 | 0.00 | 0.00 | 50 | 1009.6 |
| 20260507100225 | 2 | 0 | 0.0 | 8.0 | 0.00 | 0.00 | 0.00 | 50 | 1009.6 |
| 20260507095721 | 2 | 0 | 0.0 | 3.2 | 0.00 | 0.00 | 0.00 | 50 | 1009.6 |
| 20260507095214 | 2 | 0 | 0.0 | 3.2 | 0.00 | 0.00 | 0.00 | 50 | 1009.7 |
| 20260507094710 | 2 | 0 | 0.0 | 6.4 | 0.00 | 0.00 | 0.00 | 50 | 1009.7 |
| 20260507094207 | 2 | 0 | 1.6 | 6.4 | 0.00 | 0.00 | 0.00 | 50 | 1009.7 |
| 20260507094200 | 2 | 0 | 1.6 | 3.2 | 0.00 | 0.00 | 0.00 | 50 | 1009.7 |
| 20260507093155 | 2 | 0 | 0.0 | 3.2 | 0.00 | 0.00 | 0.00 | 51 | 1009.7 |
| 20260507092651 | 2 | 0 | 1.6 | 3.2 | 0.00 | 0.00 | 0.00 | 51 | 1009.6 |
| 20260507092139 | 2 | 0 | 1.6 | 6.4 | 0.00 | 0.00 | 0.00 | 51 | 1009.7 |
| 20260507091637 | 2 | 0 | 1.6 | 6.4 | 0.00 | 0.00 | 0.00 | 51 | 1009.7 |
| 20260507091128 | 2 | 0 | 3.2 | 6.4 | 0.00 | 0.00 | 0.00 | 50 | 1009.7 |
| 20260507091119 | 2 | 0 | 3.2 | 6.4 | 0.00 | 0.00 | 0.00 | 50 | 1009.7 |
| 20260507090109 | 2 | 0 | 3.2 | 6.4 | 0.00 | 0.00 | 0.00 | 50 | 1009.6 |
| 20260507085050 | 2 | 0 | 3.2 | 8.0 | 0.00 | 0.00 | 0.00 | 50 | 1009.6 |
| 20260507085044 | 2 | 0 | 3.2 | 11.3 | 0.00 | 0.00 | 0.00 | 49 | 1009.6 |
| 20260507084033 | 2 | 0 | 3.2 | 11.3 | 0.00 | 0.00 | 0.00 | 49 | 1009.7 |
| 20260507083526 | 2 | 0 | 3.2 | 11.3 | 0.00 | 0.00 | 0.00 | 50 | 1009.7 |
| 20260507083016 | 2 | 0 | 3.2 | 11.3 | 0.00 | 0.00 | 0.00 | 50 | 1009.7 |
| 20260507082507 | 2 | 0 | 1.6 | 8.0 | 0.00 | 0.00 | 0.00 | 50 | 1009.7 |
| 20260507081958 | 2 | 0 | 3.2 | 11.3 | 0.00 | 0.00 | 0.00 | 51 | 1009.8 |
| 20260507081448 | 2 | 0 | 3.2 | 8.0 | 0.00 | 0.00 | 0.00 | 51 | 1009.9 |
| 20260507080938 | 2 | 0 | 3.2 | 9.7 | 0.00 | 0.00 | 0.00 | 51 | 1009.8 |
| 20260507080931 | 2 | 0 | 4.8 | 12.9 | 0.00 | 0.00 | 0.00 | 51 | 1009.7 |
| 20260507075912 | 2 | 0 | 4.8 | 12.9 | 0.00 | 0.00 | 0.00 | 51 | 1009.7 |
| 20260507075400 | 2 | 0 | 3.2 | 9.7 | 0.00 | 0.00 | 0.00 | 50 | 1009.7 |
| 20260507074852 | 1 | 0 | 3.2 | 8.0 | 0.00 | 0.00 | 0.00 | 50 | 1009.8 |
| 20260507074342 | 1 | 0 | 3.2 | 8.0 | 0.00 | 0.00 | 0.00 | 50 | 1009.8 |
| 20260507073832 | 1 | 0 | 3.2 | 8.0 | 0.00 | 0.00 | 0.00 | 50 | 1009.8 |
| 20260507073320 | 1 | 0 | 1.6 | 8.0 | 0.00 | 0.00 | 0.00 | 50 | 1009.8 |
| 20260507072811 | 1 | 0 | 0.0 | 3.2 | 0.00 | 0.00 | 0.00 | 50 | 1009.8 |
| 20260507072301 | 1 | 0 | 0.0 | 3.2 | 0.00 | 0.00 | 0.00 | 50 | 1009.8 |
| 20260507071758 | 0 | 0 | 0.0 | 3.2 | 0.00 | 0.00 | 0.00 | 50 | 1009.8 |
| 20260507071246 | 0 | 0 | 0.0 | 3.2 | 0.00 | 0.00 | 0.00 | 50 | 1009.9 |
| 20260507071229 | 0 | 0 | 0.0 | 1.6 | 0.00 | 0.00 | 0.00 | 52 | 1009.9 |
| 20260507070833 | 0 | 0 | 0.0 | 0.0 | 0.00 | 0.00 | 0.00 | 51 | 1009.9 |
| 20260507065717 | 0 | 0 | 0.0 | 1.6 | 0.00 | 0.00 | 0.00 | 51 | 1009.9 |
| 20260507065209 | 0 | 0 | 0.0 | 0.0 | 0.00 | 0.00 | 0.00 | 52 | 1009.9 |
| 20260507064657 | 0 | 0 | 0.0 | 0.0 | 0.00 | 0.00 | 0.00 | 54 | 1010.0 |
| 20260507064147 | 0 | 0 | 0.0 | 0.0 | 0.00 | 0.00 | 0.00 | 54 | 1009.9 |
| 20260507063637 | 0 | 0 | 0.0 | 0.0 | 0.00 | 0.00 | 0.00 | 55 | 1010.0 |
| 20260507063126 | 0 | 0 | 0.0 | 3.2 | 0.00 | 0.00 | 0.00 | 55 | 1009.9 |
| 20260507063118 | 0 | 0 | 0.0 | 3.2 | 0.00 | 0.00 | 0.00 | 54 | 1010.0 |
| 20260507062106 | 0 | 0 | 0.0 | 0.0 | 0.00 | 0.00 | 0.00 | 54 | 1009.9 |
| 20260507062059 | 0 | 0 | 0.0 | 0.0 | 0.00 | 0.00 | 0.00 | 54 | 1010.0 |
| 20260507061046 | 0 | 0 | 0.0 | 0.0 | 0.00 | 0.00 | 0.00 | 54 | 1010.0 |
| 20260507060538 | 0 | 0 | 0.0 | 0.0 | 0.00 | 0.00 | 0.00 | 54 | 1010.0 |
| 20260507060037 | 0 | 0 | 0.0 | 0.0 | 0.00 | 0.00 | 0.00 | 53 | 1010.0 |
| 20260507055525 | 0 | 0 | 0.0 | 1.6 | 0.00 | 0.00 | 0.00 | 53 | 1010.1 |
| 20260507055015 | 0 | 0 | 0.0 | 1.6 | 0.00 | 0.00 | 0.00 | 53 | 1010.0 |
| 20260507054508 | 0 | 0 | 0.0 | 1.6 | 0.00 | 0.00 | 0.00 | 52 | 1010.0 |
| 20260507054000 | 0 | 0 | 0.0 | 3.2 | 0.00 | 0.00 | 0.00 | 52 | 1010.0 |
| 20260507053451 | 0 | 0 | 0.0 | 3.2 | 0.00 | 0.00 | 0.00 | 51 | 1010.0 |
| 20260507052945 | 0 | 0 | 0.0 | 3.2 | 0.00 | 0.00 | 0.00 | 51 | 1010.0 |
| 20260507052436 | 0 | 0 | 0.0 | 0.0 | 0.00 | 0.00 | 0.00 | 50 | 1010.0 |
| 20260507051925 | 1 | 0 | 0.0 | 0.0 | 0.00 | 0.00 | 0.00 | 49 | 1010.0 |
| 20260507051416 | 1 | 0 | 0.0 | 0.0 | 0.00 | 0.00 | 0.00 | 48 | 1010.0 |
| 20260507050905 | 1 | 0 | 0.0 | 0.0 | 0.00 | 0.00 | 0.00 | 47 | 1009.9 |
| 20260507050846 | 2 | 0 | 0.0 | 0.0 | 0.00 | 0.00 | 0.00 | 45 | 1010.0 |
| 20260507050451 | 1 | 0 | 0.0 | 0.0 | 0.00 | 0.00 | 0.00 | 46 | 1010.0 |
| 20260507045336 | 2 | 0 | 0.0 | 0.0 | 0.00 | 0.00 | 0.00 | 45 | 1010.0 |
| 20260507044825 | 2 | 0 | 0.0 | 1.6 | 0.00 | 0.00 | 0.00 | 44 | 1010.0 |
| 20260507044315 | 2 | 0 | 0.0 | 1.6 | 0.00 | 0.00 | 0.00 | 43 | 1010.0 |
| 20260507043804 | 3 | 0 | 0.0 | 1.6 | 0.00 | 0.00 | 0.00 | 41 | 1010.0 |
| 20260507043255 | 3 | 0 | 0.0 | 1.6 | 0.00 | 0.00 | 0.00 | 40 | 1010.0 |
| 20260507042744 | 3 | 0 | 0.0 | 0.0 | 0.00 | 0.00 | 0.00 | 39 | 1010.0 |
| 20260507042234 | 3 | 0 | 0.0 | 0.0 | 0.00 | 0.00 | 0.00 | 39 | 1010.0 |
| 20260507041724 | 4 | 0 | 0.0 | 1.6 | 0.00 | 0.00 | 0.00 | 38 | 1010.1 |
| 20260507041206 | 4 | 0 | 0.0 | 0.0 | 0.00 | 0.00 | 0.00 | 37 | 1010.1 |
| 20260507040657 | 5 | 0 | 0.0 | 3.2 | 0.00 | 0.00 | 0.00 | 36 | 1010.1 |
| 20260507040147 | 5 | 0 | 0.0 | 3.2 | 0.00 | 0.00 | 0.00 | 35 | 1010.1 |
| 20260507035636 | 5 | 0 | 1.6 | 3.2 | 0.00 | 0.00 | 0.00 | 34 | 1010.1 |
| 20260507035126 | 5 | 0 | 1.6 | 3.2 | 0.00 | 0.00 | 0.00 | 33 | 1010.3 |
| 20260507034616 | 5 | 0 | 1.6 | 3.2 | 0.00 | 0.00 | 0.00 | 33 | 1010.1 |
| 20260507034104 | 6 | 0 | 0.0 | 1.6 | 0.00 | 0.00 | 0.00 | 33 | 1010.3 |
| 20260507034055 | 6 | 0 | 0.0 | 0.0 | 0.00 | 0.00 | 0.00 | 32 | 1010.3 |
| 20260507033045 | 6 | 0 | 0.0 | 0.0 | 0.00 | 0.00 | 0.00 | 31 | 1010.3 |
| 20260507033035 | 6 | 0 | 0.0 | 1.6 | 0.00 | 0.00 | 0.00 | 32 | 1010.3 |
| 20260507032025 | 6 | 0 | 0.0 | 1.6 | 0.00 | 0.00 | 0.00 | 31 | 1010.3 |
| 20260507031515 | 6 | 0 | 0.0 | 0.0 | 0.00 | 0.00 | 0.00 | 31 | 1010.3 |
| 20260507031004 | 6 | 0 | 1.6 | 3.2 | 0.00 | 0.00 | 0.00 | 31 | 1010.3 |
| 20260507030454 | 6 | 0 | 3.2 | 6.4 | 0.00 | 0.00 | 0.00 | 31 | 1010.3 |
| 20260507025944 | 6 | 0 | 1.6 | 6.4 | 0.00 | 0.00 | 0.00 | 31 | 1010.3 |
| 20260507025435 | 7 | 0 | 0.0 | 3.2 | 0.00 | 0.00 | 0.00 | 30 | 1010.3 |
| 20260507024924 | 7 | 0 | 1.6 | 6.4 | 0.00 | 0.00 | 0.00 | 30 | 1010.3 |
| 20260507024415 | 7 | 0 | 3.2 | 6.4 | 0.00 | 0.00 | 0.00 | 30 | 1010.1 |
| 20260507023904 | 7 | 0 | 3.2 | 6.4 | 0.00 | 0.00 | 0.00 | 29 | 1010.1 |
| 20260507023355 | 8 | 0 | 3.2 | 8.0 | 0.00 | 0.00 | 0.00 | 29 | 1010.1 |
| 20260507022844 | 8 | 0 | 4.8 | 8.0 | 0.00 | 0.00 | 0.00 | 28 | 1010.1 |
| 20260507022835 | 8 | 0 | 4.8 | 8.0 | 0.00 | 0.00 | 0.00 | 28 | 1010.0 |
| 20260507021826 | 8 | 0 | 4.8 | 8.0 | 0.00 | 0.00 | 0.00 | 27 | 1010.0 |
| 20260507021314 | 9 | 0 | 4.8 | 8.0 | 0.00 | 0.00 | 0.00 | 27 | 1010.0 |
| 20260507020804 | 10 | 0 | 4.8 | 8.0 | 0.00 | 0.00 | 0.00 | 26 | 1010.0 |
| 20260507020254 | 10 | 0 | 4.8 | 11.3 | 0.00 | 0.00 | 0.00 | 26 | 1010.0 |
| 20260507020244 | 10 | 0 | 6.4 | 11.3 | 0.00 | 0.00 | 0.00 | 25 | 1010.0 |
| 20260507015230 | 11 | 0 | 8.0 | 11.3 | 0.00 | 0.00 | 0.00 | 25 | 1010.0 |
| 20260507015222 | 11 | 261 | 6.4 | 11.3 | 0.00 | 0.00 | 0.00 | 24 | 1010.0 |
| 20260507014208 | 11 | 261 | 8.0 | 14.5 | 0.00 | 0.00 | 0.00 | 23 | 1010.0 |
| 20260507013658 | 11 | 261 | 9.7 | 14.5 | 0.00 | 0.00 | 0.00 | 23 | 1010.0 |
| 20260507013149 | 12 | 261 | 9.7 | 16.1 | 0.00 | 0.00 | 0.00 | 23 | 1010.0 |
| 20260507012638 | 12 | 261 | 9.7 | 16.1 | 0.00 | 0.00 | 0.00 | 23 | 1010.0 |
| 20260507012630 | 12 | 261 | 11.3 | 19.3 | 0.00 | 0.00 | 0.00 | 23 | 1010.0 |
| 20260507011618 | 12 | 261 | 12.9 | 20.9 | 0.00 | 0.00 | 0.00 | 23 | 1010.0 |
| 20260507011109 | 12 | 261 | 11.3 | 20.9 | 0.00 | 0.00 | 0.00 | 23 | 1010.0 |
| 20260507010559 | 12 | 261 | 11.3 | 17.7 | 0.00 | 0.00 | 0.00 | 23 | 1010.0 |
| 20260507010055 | 12 | 261 | 11.3 | 20.9 | 0.00 | 0.00 | 0.00 | 23 | 1010.1 |
| 20260507005544 | 12 | 261 | 11.3 | 20.9 | 0.00 | 0.00 | 0.00 | 23 | 1010.1 |
| 20260507005035 | 12 | 261 | 14.5 | 20.9 | 0.00 | 0.00 | 0.00 | 22 | 1010.3 |
| 20260507004524 | 12 | 261 | 14.5 | 22.5 | 0.00 | 0.00 | 0.00 | 22 | 1010.3 |
| 20260507004514 | 12 | 261 | 12.9 | 22.5 | 0.00 | 0.00 | 0.00 | 23 | 1010.3 |
| 20260507003504 | 13 | 261 | 14.5 | 24.1 | 0.00 | 0.00 | 0.00 | 23 | 1010.4 |
| 20260507002955 | 13 | 261 | 12.9 | 24.1 | 0.00 | 0.00 | 0.00 | 23 | 1010.4 |
| 20260507002444 | 13 | 261 | 12.9 | 22.5 | 0.00 | 0.00 | 0.00 | 23 | 1010.4 |
| 20260507001934 | 13 | 261 | 14.5 | 24.1 | 0.00 | 0.00 | 0.00 | 23 | 1010.4 |
| 20260507001425 | 13 | 261 | 14.5 | 25.7 | 0.00 | 0.00 | 0.00 | 23 | 1010.5 |
| 20260507000914 | 13 | 261 | 16.1 | 24.1 | 0.00 | 0.00 | 0.00 | 22 | 1010.5 |
| 20260507000906 | 13 | 261 | 14.5 | 25.7 | 0.00 | 0.00 | 0.00 | 22 | 1010.5 |
| 20260506235855 | 13 | 261 | 14.5 | 25.7 | 0.00 | 0.00 | 0.00 | 22 | 1010.6 |
| 20260506235344 | 13 | 261 | 14.5 | 24.1 | 0.00 | 0.00 | 0.00 | 22 | 1010.6 |
| 20260506234835 | 13 | 261 | 11.3 | 24.1 | 0.00 | 0.00 | 0.00 | 23 | 1010.6 |
| 20260506234325 | 12 | 261 | 11.3 | 24.1 | 0.00 | 0.00 | 0.00 | 23 | 1010.6 |
| 20260506233814 | 12 | 261 | 14.5 | 24.1 | 0.00 | 0.00 | 0.00 | 23 | 1010.7 |
| 20260506233303 | 13 | 261 | 14.5 | 24.1 | 0.00 | 0.00 | 0.00 | 22 | 1010.7 |
| 20260506233248 | 13 | 261 | 16.1 | 29.0 | 0.00 | 0.00 | 0.00 | 22 | 1010.7 |
| 20260506232908 | 13 | 261 | 17.7 | 25.7 | 0.00 | 0.00 | 0.00 | 21 | 1010.8 |
| 20260506231738 | 13 | 261 | 20.9 | 33.8 | 0.00 | 0.00 | 0.00 | 23 | 1010.8 |
| 20260506231220 | 13 | 261 | 16.1 | 33.8 | 0.00 | 0.00 | 0.00 | 21 | 1010.8 |
| 20260506231202 | 13 | 261 | 17.7 | 32.2 | 0.00 | 0.00 | 0.00 | 22 | 1010.8 |
| 20260506230807 | 13 | 261 | 16.1 | 32.2 | 0.00 | 0.00 | 0.00 | 23 | 1010.7 |
| 20260506225650 | 13 | 261 | 17.7 | 33.8 | 0.00 | 0.00 | 0.00 | 21 | 1010.8 |
| 20260506225141 | 13 | 261 | 17.7 | 33.8 | 0.00 | 0.00 | 0.00 | 22 | 1010.8 |
| 20260506224631 | 13 | 261 | 17.7 | 30.6 | 0.00 | 0.00 | 0.00 | 21 | 1010.9 |
| 20260506224120 | 13 | 261 | 14.5 | 29.0 | 0.00 | 0.00 | 0.00 | 21 | 1011.0 |
| 20260506223611 | 13 | 261 | 11.3 | 22.5 | 0.00 | 0.00 | 0.00 | 22 | 1011.1 |
| 20260506223100 | 13 | 261 | 12.9 | 32.2 | 0.00 | 0.00 | 0.00 | 22 | 1011.0 |
| 20260506222551 | 13 | 261 | 14.5 | 32.2 | 0.00 | 0.00 | 0.00 | 23 | 1011.2 |
| 20260506222040 | 13 | 261 | 17.7 | 37.0 | 0.00 | 0.00 | 0.00 | 23 | 1011.3 |
| 20260506221530 | 13 | 261 | 20.9 | 37.0 | 0.00 | 0.00 | 0.00 | 22 | 1011.4 |
| 20260506221031 | 13 | 261 | 17.7 | 37.0 | 0.00 | 0.00 | 0.00 | 21 | 1011.5 |
| 20260506220520 | 13 | 261 | 16.1 | 37.0 | 0.00 | 0.00 | 0.00 | 22 | 1011.5 |
| 20260506220512 | 13 | 261 | 16.1 | 29.0 | 0.00 | 0.00 | 0.00 | 22 | 1011.7 |
| 20260506215500 | 13 | 261 | 19.3 | 30.6 | 0.00 | 0.00 | 0.00 | 21 | 1011.8 |
| 20260506215453 | 13 | 261 | 17.7 | 30.6 | 0.00 | 0.00 | 0.00 | 22 | 1011.8 |
| 20260506214442 | 13 | 261 | 16.1 | 30.6 | 0.00 | 0.00 | 0.00 | 22 | 1011.9 |
| 20260506214436 | 13 | 261 | 19.3 | 30.6 | 0.00 | 0.00 | 0.00 | 21 | 1011.9 |
| 20260506213424 | 13 | 261 | 17.7 | 37.0 | 0.00 | 0.00 | 0.00 | 21 | 1012.1 |
| 20260506212917 | 13 | 261 | 14.5 | 32.2 | 0.00 | 0.00 | 0.00 | 21 | 1012.1 |
| 20260506212408 | 13 | 261 | 19.3 | 35.4 | 0.00 | 0.00 | 0.00 | 22 | 1012.2 |
| 20260506212401 | 13 | 261 | 19.3 | 35.4 | 0.00 | 0.00 | 0.00 | 21 | 1012.3 |
| 20260506211844 | 13 | 261 | 17.7 | 33.8 | 0.00 | 0.00 | 0.00 | 25 | 1012.4 |
| 20260506211447 | 13 | 261 | 16.1 | 30.6 | 0.00 | 0.00 | 0.00 | 22 | 1012.4 |
| 20260506210332 | 13 | 261 | 19.3 | 33.8 | 0.00 | 0.00 | 0.00 | 23 | 1012.5 |
| 20260506205825 | 12 | 261 | 17.7 | 33.8 | 0.00 | 0.00 | 0.00 | 23 | 1012.6 |
| 20260506205317 | 12 | 261 | 16.1 | 33.8 | 0.00 | 0.00 | 0.00 | 23 | 1012.7 |
| 20260506205309 | 12 | 261 | 16.1 | 29.0 | 0.00 | 0.00 | 0.00 | 22 | 1012.7 |
| 20260506204300 | 12 | 261 | 17.7 | 33.8 | 0.00 | 0.00 | 0.00 | 22 | 1012.8 |
| 20260506204254 | 12 | 261 | 19.3 | 33.8 | 0.00 | 0.00 | 0.00 | 23 | 1012.8 |
| 20260506203244 | 12 | 261 | 19.3 | 38.6 | 0.00 | 0.00 | 0.00 | 24 | 1012.9 |
| 20260506202738 | 12 | 261 | 16.1 | 38.6 | 0.00 | 0.00 | 0.00 | 22 | 1013.2 |
| 20260506202240 | 12 | 261 | 12.9 | 25.7 | 0.00 | 0.00 | 0.00 | 24 | 1013.2 |
| 20260506202236 | 12 | 261 | 14.5 | 29.0 | 0.00 | 0.00 | 0.00 | 22 | 1013.2 |
| 20260506201231 | 12 | 261 | 11.3 | 24.1 | 0.00 | 0.00 | 0.00 | 23 | 1013.3 |
| 20260506200726 | 12 | 261 | 11.3 | 30.6 | 0.00 | 0.00 | 0.00 | 23 | 1013.4 |
| 20260506200221 | 12 | 261 | 14.5 | 30.6 | 0.00 | 0.00 | 0.00 | 24 | 1013.5 |
| 20260506195718 | 12 | 261 | 17.7 | 30.6 | 0.00 | 0.00 | 0.00 | 23 | 1013.6 |
| 20260506195217 | 12 | 261 | 16.1 | 30.6 | 0.00 | 0.00 | 0.00 | 22 | 1013.6 |
| 20260506194713 | 12 | 261 | 14.5 | 20.9 | 0.00 | 0.00 | 0.00 | 25 | 1013.7 |
| 20260506194211 | 12 | 261 | 12.9 | 29.0 | 0.00 | 0.00 | 0.00 | 24 | 1013.7 |
| 20260506193708 | 11 | 261 | 11.3 | 29.0 | 0.00 | 0.00 | 0.00 | 24 | 1013.9 |
| 20260506193205 | 11 | 261 | 16.1 | 37.0 | 0.00 | 0.00 | 0.00 | 27 | 1014.0 |
| 20260506192658 | 11 | 261 | 20.9 | 37.0 | 0.00 | 0.00 | 0.00 | 25 | 1014.1 |
| 20260506192153 | 11 | 261 | 20.9 | 33.8 | 0.00 | 0.00 | 0.00 | 25 | 1014.3 |
| 20260506191650 | 10 | 261 | 17.7 | 32.2 | 0.00 | 0.00 | 0.00 | 25 | 1014.5 |
| 20260506191150 | 11 | 261 | 16.1 | 29.0 | 0.00 | 0.00 | 0.00 | 24 | 1014.5 |
| 20260506190642 | 11 | 261 | 12.9 | 25.7 | 0.00 | 0.00 | 0.00 | 26 | 1014.6 |
| 20260506190140 | 10 | 261 | 12.9 | 24.1 | 0.00 | 0.00 | 0.00 | 26 | 1014.5 |
| 20260506190135 | 10 | 261 | 16.1 | 25.7 | 0.00 | 0.00 | 0.00 | 25 | 1014.7 |
| 20260506185129 | 10 | 261 | 16.1 | 25.7 | 0.00 | 0.00 | 0.00 | 25 | 1014.8 |
| 20260506184623 | 10 | 261 | 12.9 | 25.7 | 0.00 | 0.00 | 0.00 | 25 | 1015.0 |
| 20260506184119 | 10 | 261 | 14.5 | 25.7 | 0.00 | 0.00 | 0.00 | 26 | 1015.0 |
| 20260506183617 | 10 | 261 | 14.5 | 25.7 | 0.00 | 0.00 | 0.00 | 24 | 1015.0 |
| 20260506183114 | 10 | 261 | 14.5 | 24.1 | 0.00 | 0.00 | 0.00 | 26 | 1015.1 |
| 20260506183108 | 10 | 261 | 16.1 | 30.6 | 0.00 | 0.00 | 0.00 | 25 | 1015.3 |
| 20260506182713 | 10 | 261 | 16.1 | 25.7 | 0.00 | 0.00 | 0.00 | 25 | 1015.1 |
| 20260506181559 | 10 | 261 | 16.1 | 30.6 | 0.00 | 0.00 | 0.00 | 25 | 1015.3 |
| 20260506181053 | 10 | 261 | 14.5 | 30.6 | 0.00 | 0.00 | 0.00 | 26 | 1015.5 |
| 20260506180548 | 9 | 261 | 14.5 | 30.6 | 0.00 | 0.00 | 0.00 | 27 | 1015.5 |
| 20260506180039 | 9 | 261 | 17.7 | 32.2 | 0.00 | 0.00 | 0.00 | 25 | 1015.6 |
| 20260506175537 | 9 | 261 | 17.7 | 32.2 | 0.00 | 0.00 | 0.00 | 26 | 1015.7 |
| 20260506175027 | 9 | 261 | 16.1 | 25.7 | 0.00 | 0.00 | 0.00 | 25 | 1015.7 |
| 20260506174523 | 9 | 261 | 12.9 | 30.6 | 0.00 | 0.00 | 0.00 | 26 | 1015.9 |
| 20260506174014 | 8 | 261 | 14.5 | 30.6 | 0.00 | 0.00 | 0.00 | 27 | 1016.0 |
| 20260506174009 | 8 | 261 | 17.7 | 32.2 | 0.00 | 0.00 | 0.00 | 26 | 1016.1 |
| 20260506173000 | 8 | 261 | 19.3 | 33.8 | 0.00 | 0.00 | 0.00 | 27 | 1016.1 |
| 20260506172448 | 8 | 261 | 20.9 | 33.8 | 0.00 | 0.00 | 0.00 | 26 | 1016.2 |
| 20260506171939 | 8 | 261 | 17.7 | 32.2 | 0.00 | 0.00 | 0.00 | 27 | 1016.2 |
| 20260506171441 | 8 | 261 | 17.7 | 32.2 | 0.00 | 0.00 | 0.00 | 27 | 1016.2 |
| 20260506170924 | 8 | 261 | 19.3 | 32.2 | 0.00 | 0.00 | 0.00 | 27 | 1016.2 |
| 20260506170416 | 8 | 261 | 19.3 | 32.2 | 0.00 | 0.00 | 0.00 | 27 | 1016.3 |
| 20260506170406 | 8 | 261 | 16.1 | 30.6 | 0.00 | 0.00 | 0.00 | 27 | 1016.3 |
| 20260506165355 | 8 | 261 | 16.1 | 29.0 | 0.00 | 0.00 | 0.00 | 28 | 1016.4 |
| 20260506164849 | 8 | 261 | 17.7 | 33.8 | 0.00 | 0.00 | 0.00 | 28 | 1016.5 |
| 20260506164348 | 8 | 261 | 17.7 | 33.8 | 0.00 | 0.00 | 0.00 | 29 | 1016.6 |
| 20260506163838 | 8 | 261 | 16.1 | 25.7 | 0.00 | 0.00 | 0.00 | 28 | 1016.6 |
| 20260506163328 | 7 | 261 | 17.7 | 30.6 | 0.00 | 0.00 | 0.00 | 28 | 1016.7 |
| 20260506162817 | 7 | 261 | 17.7 | 29.0 | 0.00 | 0.00 | 0.00 | 31 | 1016.7 |
| 20260506162307 | 7 | 261 | 19.3 | 33.8 | 0.00 | 0.00 | 0.00 | 30 | 1016.7 |
| 20260506161758 | 7 | 261 | 19.3 | 33.8 | 0.00 | 0.00 | 0.00 | 29 | 1016.8 |
| 20260506161245 | 7 | 261 | 17.7 | 30.6 | 0.00 | 0.00 | 0.00 | 30 | 1016.8 |
| 20260506160735 | 7 | 261 | 16.1 | 30.6 | 0.00 | 0.00 | 0.00 | 31 | 1016.8 |
| 20260506160225 | 7 | 261 | 16.1 | 25.7 | 0.00 | 0.00 | 0.00 | 32 | 1016.8 |
| 20260506155716 | 7 | 261 | 16.1 | 25.7 | 0.00 | 0.00 | 0.00 | 31 | 1016.9 |
| 20260506155205 | 7 | 261 | 14.5 | 24.1 | 0.00 | 0.00 | 0.00 | 33 | 1016.8 |
| 20260506154655 | 7 | 261 | 16.1 | 24.1 | 0.00 | 0.00 | 0.00 | 32 | 1017.0 |
| 20260506154145 | 7 | 261 | 14.5 | 24.1 | 0.00 | 0.00 | 0.00 | 32 | 1017.0 |
| 20260506153636 | 6 | 261 | 12.9 | 24.1 | 0.00 | 0.00 | 0.00 | 34 | 1017.0 |
| 20260506153125 | 6 | 261 | 14.5 | 25.7 | 0.00 | 0.00 | 0.00 | 35 | 1017.0 |
| 20260506153116 | 6 | 261 | 14.5 | 25.7 | 0.00 | 0.00 | 0.00 | 35 | 1017.0 |
| 20260506152557 | 6 | 261 | 11.3 | 17.7 | 0.00 | 0.00 | 0.00 | 36 | 1017.1 |
| 20260506152203 | 6 | 261 | 12.9 | 22.5 | 0.00 | 0.00 | 0.00 | 35 | 1017.1 |
| 20260506151046 | 6 | 261 | 12.9 | 24.1 | 0.00 | 0.00 | 0.00 | 38 | 1017.3 |
| 20260506150535 | 6 | 261 | 14.5 | 24.1 | 0.00 | 0.00 | 0.00 | 37 | 1017.4 |
| 20260506150027 | 6 | 261 | 14.5 | 22.5 | 0.00 | 0.00 | 0.00 | 38 | 1017.4 |
| 20260506145515 | 6 | 261 | 12.9 | 20.9 | 0.00 | 0.00 | 0.00 | 38 | 1017.4 |
| 20260506145005 | 5 | 261 | 11.3 | 20.9 | 0.00 | 0.00 | 0.00 | 38 | 1017.4 |